createdAt,value
2019-05-15T00:09:01.158Z,1016.12
2019-05-15T00:10:01.618Z,1016.18
2019-05-15T00:11:01.512Z,1016.17
2019-05-15T00:12:02.088Z,1016.15
2019-05-15T00:13:02.035Z,1016.14
2019-05-15T00:14:02.633Z,1016.14
2019-05-15T00:15:02.995Z,1016.10
2019-05-15T00:16:03.124Z,1016.16
2019-05-15T00:17:03.216Z,1016.16
2019-05-15T00:18:03.301Z,1016.13
2019-05-15T00:19:03.384Z,1016.08
2019-05-15T00:20:03.501Z,1016.15
2019-05-15T00:21:03.465Z,1016.08
2019-05-15T00:22:03.840Z,1016.02
2019-05-15T00:24:13.184Z,1016.07
2019-05-15T00:25:03.936Z,1016.08
2019-05-15T00:26:04.275Z,1016.15
2019-05-15T00:27:04.384Z,1016.08
2019-05-15T00:28:04.729Z,1016.12
2019-05-15T00:29:12.888Z,1016.07
2019-05-15T00:30:04.881Z,1016.16
2019-05-15T00:31:05.279Z,1016.06
2019-05-15T00:32:05.188Z,1016.08
2019-05-15T00:33:05.590Z,1016.10
2019-05-15T00:35:06.009Z,1016.13
2019-05-15T00:36:08.480Z,1016.08
2019-05-15T00:37:05.894Z,1016.00
2019-05-15T00:38:06.029Z,1015.99
2019-05-15T00:39:08.463Z,1016.08
2019-05-15T00:40:08.813Z,1016.09
2019-05-15T00:41:09.522Z,1016.09
2019-05-15T00:42:08.314Z,1016.07
2019-05-15T00:43:08.804Z,1016.07
2019-05-15T00:44:09.264Z,1016.10
2019-05-15T00:45:09.475Z,1016.03
2019-05-15T00:46:09.313Z,1016.00
2019-05-15T00:47:10.408Z,1016.05
2019-05-15T00:48:09.173Z,1016.00
2019-05-15T00:50:09.603Z,1016.00
2019-05-15T00:51:10.132Z,1015.92
2019-05-15T00:52:12.166Z,1015.88
2019-05-15T00:53:10.351Z,1015.92
2019-05-15T00:54:10.717Z,1015.92
2019-05-15T00:55:10.663Z,1015.92
2019-05-15T00:56:10.961Z,1015.85
2019-05-15T00:57:11.238Z,1015.87
2019-05-15T00:58:11.639Z,1015.90
2019-05-15T00:59:23.269Z,1015.82
2019-05-15T01:00:12.199Z,1015.87
2019-05-15T01:01:12.487Z,1015.79
2019-05-15T01:02:12.776Z,1015.85
2019-05-15T01:03:12.852Z,1015.85
2019-05-15T01:04:13.496Z,1015.88
2019-05-15T01:05:13.518Z,1015.80
2019-05-15T01:07:13.419Z,1015.78
2019-05-15T01:08:13.850Z,1015.75
2019-05-15T01:09:14.329Z,1015.71
2019-05-15T01:10:14.183Z,1015.65
2019-05-15T01:11:14.569Z,1015.69
2019-05-15T01:12:14.804Z,1015.73
2019-05-15T01:13:15.087Z,1015.63
2019-05-15T01:14:15.438Z,1015.62
2019-05-15T01:15:18.302Z,1015.65
2019-05-15T01:17:15.863Z,1015.62
2019-05-15T01:18:18.525Z,1015.54
2019-05-15T01:19:18.525Z,1015.58
2019-05-15T01:20:18.909Z,1015.66
2019-05-15T01:21:18.782Z,1015.63
2019-05-15T01:22:19.551Z,1015.62
2019-05-15T01:23:18.737Z,1015.59
2019-05-15T01:25:18.649Z,1015.60
2019-05-15T01:26:18.908Z,1015.54
2019-05-15T01:27:18.773Z,1015.55
2019-05-15T01:28:19.063Z,1015.51
2019-05-15T01:29:19.366Z,1015.50
2019-05-15T01:30:19.780Z,1015.52
2019-05-15T01:31:20.067Z,1015.52
2019-05-15T01:32:20.517Z,1015.53
2019-05-15T01:33:20.965Z,1015.48
2019-05-15T01:34:21.018Z,1015.49
2019-05-15T01:35:21.454Z,1015.45
2019-05-15T01:36:22.054Z,1015.44
2019-05-15T01:37:22.000Z,1015.38
2019-05-15T01:38:22.198Z,1015.39
2019-05-15T01:39:22.478Z,1015.42
2019-05-15T01:40:23.027Z,1015.29
2019-05-15T01:41:22.822Z,1015.39
2019-05-15T01:42:23.314Z,1015.41
2019-05-15T01:43:23.848Z,1015.42
2019-05-15T01:44:23.638Z,1015.47
2019-05-15T01:45:24.199Z,1015.45
2019-05-15T01:46:24.384Z,1015.46
2019-05-15T01:47:24.924Z,1015.46
2019-05-15T01:48:24.992Z,1015.39
2019-05-15T01:49:25.058Z,1015.50
2019-05-15T01:50:25.345Z,1015.46
2019-05-15T01:51:25.623Z,1015.48
2019-05-15T01:52:27.955Z,1015.47
2019-05-15T01:53:26.069Z,1015.48
2019-05-15T01:54:28.682Z,1015.43
2019-05-15T01:55:28.346Z,1015.42
2019-05-15T01:56:29.103Z,1015.45
2019-05-15T01:57:28.760Z,1015.41
2019-05-15T01:58:28.698Z,1015.49
2019-05-15T01:59:28.424Z,1015.59
2019-05-15T02:00:28.304Z,1015.40
2019-05-15T02:01:28.444Z,1015.47
2019-05-15T02:02:28.440Z,1015.47
2019-05-15T02:03:29.103Z,1015.46
2019-05-15T02:04:29.309Z,1015.47
2019-05-15T02:05:29.338Z,1015.44
2019-05-15T02:06:29.624Z,1015.47
2019-05-15T02:07:29.702Z,1015.41
2019-05-15T02:08:29.645Z,1015.46
2019-05-15T02:09:30.099Z,1015.39
2019-05-15T02:10:30.516Z,1015.41
2019-05-15T02:11:30.686Z,1015.42
2019-05-15T02:12:30.997Z,1015.35
2019-05-15T02:13:31.571Z,1015.45
2019-05-15T02:14:31.371Z,1015.36
2019-05-15T02:15:31.949Z,1015.34
2019-05-15T02:16:31.831Z,1015.37
2019-05-15T02:17:32.142Z,1015.40
2019-05-15T02:18:32.522Z,1015.39
2019-05-15T02:19:33.002Z,1015.30
2019-05-15T02:20:32.820Z,1015.35
2019-05-15T02:21:32.966Z,1015.30
2019-05-15T02:22:33.432Z,1015.41
2019-05-15T02:23:33.995Z,1015.31
2019-05-15T02:24:34.021Z,1015.33
2019-05-15T02:25:33.804Z,1015.38
2019-05-15T02:26:34.198Z,1015.35
2019-05-15T02:27:34.896Z,1015.35
2019-05-15T02:28:35.014Z,1015.31
2019-05-15T02:29:34.978Z,1015.32
2019-05-15T02:30:35.295Z,1015.39
2019-05-15T02:32:39.083Z,1015.31
2019-05-15T02:34:39.208Z,1015.33
2019-05-15T02:35:39.272Z,1015.33
2019-05-15T02:36:39.730Z,1015.33
2019-05-15T02:37:40.872Z,1015.36
2019-05-15T02:38:40.458Z,1015.33
2019-05-15T02:39:38.895Z,1015.28
2019-05-15T02:40:40.455Z,1015.33
2019-05-15T02:41:39.601Z,1015.33
2019-05-15T02:42:40.038Z,1015.36
2019-05-15T02:43:39.240Z,1015.29
2019-05-15T02:44:39.934Z,1015.35
2019-05-15T02:45:41.958Z,1015.35
2019-05-15T02:46:39.454Z,1015.30
2019-05-15T02:47:40.147Z,1015.37
2019-05-15T02:48:41.037Z,1015.26
2019-05-15T02:49:40.185Z,1015.25
2019-05-15T02:50:40.510Z,1015.23
2019-05-15T02:51:40.816Z,1015.27
2019-05-15T02:52:45.184Z,1015.28
2019-05-15T02:53:41.486Z,1015.30
2019-05-15T02:54:41.949Z,1015.21
2019-05-15T02:55:41.976Z,1015.26
2019-05-15T02:56:42.229Z,1015.24
2019-05-15T02:57:42.631Z,1015.24
2019-05-15T02:58:42.943Z,1015.28
2019-05-15T02:59:43.244Z,1015.28
2019-05-15T03:00:49.646Z,1015.25
2019-05-15T03:01:44.047Z,1015.21
2019-05-15T03:02:44.349Z,1015.34
2019-05-15T03:03:44.959Z,1015.29
2019-05-15T03:04:44.776Z,1015.30
2019-05-15T03:05:45.123Z,1015.30
2019-05-15T03:06:45.563Z,1015.31
2019-05-15T03:07:49.078Z,1015.34
2019-05-15T03:08:49.270Z,1015.32
2019-05-15T03:09:49.722Z,1015.29
2019-05-15T03:10:49.595Z,1015.26
2019-05-15T03:11:49.398Z,1015.31
2019-05-15T03:12:49.505Z,1015.27
2019-05-15T03:13:50.263Z,1015.36
2019-05-15T03:14:49.041Z,1015.33
2019-05-15T03:15:49.164Z,1015.29
2019-05-15T03:16:49.760Z,1015.28
2019-05-15T03:17:49.590Z,1015.27
2019-05-15T03:18:50.505Z,1015.28
2019-05-15T03:19:49.992Z,1015.23
2019-05-15T03:20:50.182Z,1015.23
2019-05-15T03:21:49.885Z,1015.23
2019-05-15T03:22:49.777Z,1015.27
2019-05-15T03:23:50.885Z,1015.26
2019-05-15T03:24:50.646Z,1015.24
2019-05-15T03:25:51.016Z,1015.21
2019-05-15T03:26:51.048Z,1015.27
2019-05-15T03:27:50.828Z,1015.22
2019-05-15T03:28:51.116Z,1015.24
2019-05-15T03:29:51.592Z,1015.30
2019-05-15T03:31:14.285Z,1015.26
2019-05-15T03:32:06.498Z,1015.21
2019-05-15T03:33:00.748Z,1015.15
2019-05-15T03:33:54.692Z,1015.18
2019-05-15T03:34:56.471Z,1015.15
2019-05-15T03:35:54.895Z,1015.28
2019-05-15T03:36:53.734Z,1015.15
2019-05-15T03:37:53.591Z,1015.16
2019-05-15T03:38:54.084Z,1015.20
2019-05-15T03:39:54.137Z,1015.23
2019-05-15T03:40:53.925Z,1015.14
2019-05-15T03:41:54.282Z,1015.15
2019-05-15T03:42:54.530Z,1015.19
2019-05-15T03:43:54.794Z,1015.18
2019-05-15T03:44:54.591Z,1015.18
2019-05-15T03:45:55.065Z,1015.27
2019-05-15T03:46:55.351Z,1015.24
2019-05-15T03:47:55.885Z,1015.25
2019-05-15T03:48:55.937Z,1015.24
2019-05-15T03:49:56.013Z,1015.22
2019-05-15T03:50:55.809Z,1015.25
2019-05-15T03:51:58.777Z,1015.20
2019-05-15T03:52:58.857Z,1015.32
2019-05-15T03:54:00.052Z,1015.24
2019-05-15T03:54:58.834Z,1015.30
2019-05-15T03:55:58.881Z,1015.29
2019-05-15T03:56:58.504Z,1015.27
2019-05-15T03:57:59.133Z,1015.29
2019-05-15T03:58:59.732Z,1015.27
2019-05-15T03:59:59.745Z,1015.31
2019-05-15T04:01:00.215Z,1015.24
2019-05-15T04:01:59.890Z,1015.30
2019-05-15T04:02:59.316Z,1015.28
2019-05-15T04:05:01.583Z,1015.29
2019-05-15T04:06:00.689Z,1015.28
2019-05-15T04:07:00.397Z,1015.26
2019-05-15T04:09:00.987Z,1015.35
2019-05-15T04:10:00.900Z,1015.28
2019-05-15T04:12:01.841Z,1015.19
2019-05-15T04:14:01.952Z,1015.25
2019-05-15T04:23:03.886Z,1015.35
2019-05-15T04:24:04.007Z,1015.24
2019-05-15T04:25:04.235Z,1015.27
2019-05-15T04:27:09.603Z,1015.33
2019-05-15T04:33:09.091Z,1015.40
2019-05-15T04:37:09.422Z,1015.34
2019-05-15T04:45:10.237Z,1015.48
2019-05-15T04:46:10.295Z,1015.38
2019-05-15T04:47:09.978Z,1015.38
2019-05-15T04:48:10.581Z,1015.39
2019-05-15T04:49:10.352Z,1015.42
2019-05-15T04:51:10.922Z,1015.44
2019-05-15T04:52:11.203Z,1015.40
2019-05-15T04:55:12.459Z,1015.41
2019-05-15T04:59:13.639Z,1015.39
2019-05-15T05:00:13.940Z,1015.42
2019-05-15T05:02:19.450Z,1015.39
2019-05-15T05:04:14.951Z,1015.47
2019-05-15T05:07:18.689Z,1015.38
2019-05-15T14:54:00.267Z,1011.10
